createdAt,value
2024-02-05T00:01:10.177Z,21.37
2024-02-05T00:03:38.308Z,20.03
2024-02-05T00:06:06.793Z,17.73
2024-02-05T00:08:35.693Z,27.67
2024-02-05T00:11:06.288Z,23.50
2024-02-05T00:13:34.498Z,17.97
2024-02-05T00:16:03.143Z,18.73
2024-02-05T00:18:31.397Z,14.60
2024-02-05T00:20:59.371Z,17.30
2024-02-05T00:23:27.347Z,16.77
2024-02-05T00:25:55.360Z,14.20
2024-02-05T00:28:24.826Z,23.80
2024-02-05T00:30:52.823Z,22.07
2024-02-05T00:33:20.795Z,22.33
2024-02-05T00:35:48.849Z,20.47
2024-02-05T00:38:16.862Z,17.53
2024-02-05T00:40:45.902Z,22.50
2024-02-05T00:43:13.889Z,25.20
2024-02-05T00:45:43.292Z,17.70
2024-02-05T00:48:11.388Z,18.20
2024-02-05T00:50:39.369Z,25.60
2024-02-05T00:53:07.500Z,20.77
2024-02-05T00:55:35.455Z,16.07
2024-02-05T00:58:04.561Z,15.47
2024-02-05T01:00:32.701Z,15.20
2024-02-05T01:03:02.608Z,13.77
2024-02-05T01:05:30.732Z,13.23
2024-02-05T01:07:58.931Z,12.93
2024-02-05T01:10:26.961Z,13.60
2024-02-05T01:12:54.939Z,12.33
2024-02-05T01:15:22.976Z,11.50
2024-02-05T01:17:51.027Z,14.53
2024-02-05T01:20:20.457Z,15.20
2024-02-05T01:22:48.983Z,15.17
2024-02-05T01:25:17.125Z,13.43
2024-02-05T01:27:45.242Z,13.07
2024-02-05T01:30:14.643Z,12.30
2024-02-05T01:32:42.631Z,15.50
2024-02-05T01:35:11.367Z,12.87
2024-02-05T01:37:40.773Z,11.87
2024-02-05T01:40:11.573Z,12.33
2024-02-05T01:42:40.861Z,12.83
2024-02-05T01:45:10.415Z,10.53
2024-02-05T01:47:39.435Z,10.20
2024-02-05T01:50:10.786Z,10.00
2024-02-05T01:52:46.160Z,10.17
2024-02-05T01:55:16.164Z,9.77
2024-02-05T01:57:45.370Z,10.23
2024-02-05T02:00:16.081Z,9.77
2024-02-05T02:02:45.029Z,9.90
2024-02-05T02:05:14.332Z,9.70
2024-02-05T02:07:44.050Z,9.63
2024-02-05T02:10:12.362Z,8.80
2024-02-05T02:12:40.732Z,9.37
2024-02-05T02:15:09.543Z,9.07
2024-02-05T02:17:42.164Z,9.80
2024-02-05T02:20:11.973Z,10.00
2024-02-05T02:22:54.791Z,8.00
2024-02-05T02:25:24.626Z,9.13
2024-02-05T02:27:52.742Z,8.60
2024-02-05T02:30:23.093Z,8.60
2024-02-05T02:33:02.520Z,8.63
2024-02-05T02:35:35.593Z,9.23
2024-02-05T02:38:12.918Z,9.23
2024-02-05T02:40:43.086Z,9.37
2024-02-05T02:43:12.297Z,8.73
2024-02-05T02:45:40.677Z,9.03
2024-02-05T02:48:09.058Z,8.50
2024-02-05T02:50:37.202Z,8.97
2024-02-05T02:53:05.456Z,9.50
2024-02-05T02:55:33.400Z,9.50
2024-02-05T02:58:02.808Z,9.43
2024-02-05T03:00:30.904Z,8.83
2024-02-05T03:02:58.877Z,8.07
2024-02-05T03:05:27.471Z,7.60
2024-02-05T03:07:55.415Z,7.67
2024-02-05T03:10:23.455Z,8.17
2024-02-05T03:12:51.514Z,8.40
2024-02-05T03:15:21.848Z,7.33
2024-02-05T03:17:49.869Z,8.40
2024-02-05T03:20:34.784Z,7.60
2024-02-05T03:23:08.812Z,8.00
2024-02-05T03:25:38.869Z,8.13
2024-02-05T03:28:08.932Z,7.63
2024-02-05T03:30:39.504Z,7.53
2024-02-05T03:33:07.932Z,9.00
2024-02-05T03:35:36.599Z,9.10
2024-02-05T03:38:05.245Z,7.67
2024-02-05T03:40:33.255Z,8.63
2024-02-05T03:43:01.257Z,7.93
2024-02-05T03:45:30.079Z,8.17
2024-02-05T03:47:59.508Z,8.33
2024-02-05T03:50:27.498Z,8.80
2024-02-05T03:52:55.777Z,8.80
2024-02-05T03:55:23.778Z,8.53
2024-02-05T03:57:59.695Z,8.13
2024-02-05T04:00:27.910Z,8.73
2024-02-05T04:02:57.248Z,8.87
2024-02-05T04:05:29.700Z,9.10
2024-02-05T04:07:58.515Z,8.20
2024-02-05T04:10:27.152Z,8.53
2024-02-05T04:12:55.320Z,8.87
2024-02-05T04:15:23.505Z,9.13
2024-02-05T04:17:51.523Z,9.53
2024-02-05T04:20:20.792Z,9.10
2024-02-05T04:22:51.044Z,8.53
2024-02-05T04:25:19.295Z,7.97
2024-02-05T04:27:47.590Z,8.60
2024-02-05T04:30:17.397Z,8.57
2024-02-05T04:32:45.732Z,8.30
2024-02-05T04:35:13.972Z,7.83
2024-02-05T04:37:44.032Z,8.20
2024-02-05T04:40:13.850Z,7.80
2024-02-05T04:42:42.038Z,9.00
2024-02-05T04:45:11.027Z,7.63
2024-02-05T04:47:39.631Z,8.37
2024-02-05T04:50:08.763Z,8.40
2024-02-05T04:52:37.066Z,8.50
2024-02-05T04:55:05.645Z,8.50
2024-02-05T04:57:35.111Z,8.03
2024-02-05T05:00:03.285Z,8.77
2024-02-05T05:02:31.279Z,7.90
2024-02-05T05:04:59.258Z,8.13
2024-02-05T05:07:28.542Z,8.20
2024-02-05T05:09:56.583Z,8.40
2024-02-05T05:12:24.576Z,7.33
2024-02-05T05:14:53.874Z,8.33
2024-02-05T05:17:22.052Z,7.33
2024-02-05T05:19:50.167Z,8.27
2024-02-05T05:22:18.298Z,8.23
2024-02-05T05:24:46.591Z,8.80
2024-02-05T05:27:14.576Z,7.63
2024-02-05T05:29:42.537Z,7.90
2024-02-05T05:32:11.863Z,7.90
2024-02-05T05:34:40.156Z,10.30
2024-02-05T05:37:08.370Z,8.73
2024-02-05T05:39:36.514Z,9.57
2024-02-05T05:42:04.775Z,7.90
2024-02-05T05:44:32.752Z,7.70
2024-02-05T05:47:00.729Z,7.47
2024-02-05T05:49:30.714Z,7.87
2024-02-05T05:51:59.020Z,7.43
2024-02-05T05:54:27.333Z,7.17
2024-02-05T05:56:55.760Z,7.40
2024-02-05T05:59:23.856Z,6.60
2024-02-05T06:01:52.642Z,6.67
2024-02-05T06:04:20.711Z,6.40
2024-02-05T06:06:50.400Z,6.53
2024-02-05T06:09:19.928Z,6.77
2024-02-05T06:11:48.015Z,7.77
2024-02-05T06:14:16.046Z,7.77
2024-02-05T06:16:44.116Z,6.10
2024-02-05T06:19:12.136Z,5.87
2024-02-05T06:21:40.194Z,6.67
2024-02-05T06:24:09.657Z,6.10
2024-02-05T06:26:37.621Z,6.20
2024-02-05T06:29:05.547Z,6.47
2024-02-05T06:31:33.642Z,6.20
2024-02-05T06:34:02.555Z,7.00
2024-02-05T06:36:31.433Z,5.60
2024-02-05T06:38:59.406Z,6.57
2024-02-05T06:41:28.687Z,6.47
2024-02-05T06:43:56.694Z,6.00
2024-02-05T06:46:24.828Z,6.20
2024-02-05T06:48:52.971Z,6.07
2024-02-05T06:51:21.013Z,6.27
2024-02-05T06:53:49.109Z,5.83
2024-02-05T06:56:17.440Z,5.93
2024-02-05T06:58:46.791Z,5.77
2024-02-05T07:01:15.275Z,6.03
2024-02-05T07:03:43.385Z,6.20
2024-02-05T07:06:12.118Z,6.30
2024-02-05T07:08:40.320Z,6.53
2024-02-05T07:11:08.296Z,7.47
2024-02-05T07:13:36.679Z,6.57
2024-02-05T07:16:06.994Z,6.93
2024-02-05T07:18:35.137Z,11.00
2024-02-05T07:21:06.203Z,8.27
2024-02-05T07:23:34.267Z,7.13
2024-02-05T07:26:02.226Z,7.80
2024-02-05T07:28:30.963Z,8.07
2024-02-05T07:31:00.117Z,8.23
2024-02-05T07:33:29.440Z,7.93
2024-02-05T07:35:59.854Z,9.07
2024-02-05T07:38:28.009Z,13.37
2024-02-05T07:40:56.016Z,11.77
2024-02-05T07:43:24.408Z,9.33
2024-02-05T07:45:52.508Z,15.60
2024-02-05T07:48:21.154Z,17.67
2024-02-05T07:50:50.713Z,17.67
2024-02-05T07:53:18.729Z,16.37
2024-02-05T07:55:46.683Z,18.13
2024-02-05T07:58:14.782Z,15.50
2024-02-05T08:00:45.535Z,10.53
2024-02-05T08:03:14.563Z,11.80
2024-02-05T08:05:42.754Z,15.13
2024-02-05T08:08:12.166Z,14.30
2024-02-05T08:10:40.277Z,16.27
2024-02-05T08:13:08.483Z,15.90
2024-02-05T08:15:36.441Z,17.57
2024-02-05T08:18:04.717Z,13.23
2024-02-05T08:20:32.713Z,14.63
2024-02-05T08:23:00.666Z,13.07
2024-02-05T08:25:31.464Z,13.40
2024-02-05T08:28:01.094Z,12.57
2024-02-05T08:30:29.168Z,12.73
2024-02-05T08:32:57.239Z,12.17
2024-02-05T08:35:25.316Z,9.70
2024-02-05T08:37:54.056Z,9.53
2024-02-05T08:40:22.144Z,10.17
2024-02-05T08:42:51.532Z,10.00
2024-02-05T08:45:20.065Z,11.67
2024-02-05T08:47:48.111Z,10.67
2024-02-05T08:50:16.567Z,10.33
2024-02-05T08:52:44.676Z,11.20
2024-02-05T08:55:12.606Z,11.40
2024-02-05T08:57:43.380Z,11.10
2024-02-05T09:00:15.188Z,10.67
2024-02-05T09:02:43.361Z,10.10
2024-02-05T09:05:11.554Z,10.43
2024-02-05T09:07:40.736Z,11.00
2024-02-05T09:10:09.584Z,10.60
2024-02-05T09:12:37.612Z,10.67
2024-02-05T09:15:06.387Z,9.63
2024-02-05T09:17:35.816Z,12.77
2024-02-05T09:20:04.153Z,10.70
2024-02-05T09:22:35.012Z,10.93
2024-02-05T09:25:03.611Z,11.27
2024-02-05T09:27:31.650Z,11.63
2024-02-05T09:29:59.642Z,10.97
2024-02-05T09:32:27.681Z,11.30
2024-02-05T09:34:59.122Z,16.97
2024-02-05T09:37:27.320Z,10.97
2024-02-05T09:39:55.422Z,11.40
2024-02-05T09:42:23.425Z,18.20
2024-02-05T09:44:52.627Z,15.10
2024-02-05T09:47:21.809Z,14.77
2024-02-05T09:49:50.661Z,16.77
2024-02-05T09:52:21.063Z,17.47
2024-02-05T09:54:49.788Z,11.77
2024-02-05T09:57:18.992Z,13.47
2024-02-05T09:59:48.067Z,15.27
2024-02-05T10:02:18.021Z,13.17
2024-02-05T10:04:46.477Z,23.97
2024-02-05T10:07:16.184Z,14.17
2024-02-05T10:09:45.952Z,13.83
2024-02-05T10:12:14.995Z,15.10
2024-02-05T10:14:43.966Z,14.63
2024-02-05T10:17:12.626Z,14.50
2024-02-05T10:19:40.919Z,15.93
2024-02-05T10:22:10.319Z,18.33
2024-02-05T10:24:41.759Z,18.27
2024-02-05T10:27:16.883Z,12.97
2024-02-05T10:29:44.981Z,14.70
2024-02-05T10:32:12.947Z,19.40
2024-02-05T10:34:41.349Z,14.57
2024-02-05T10:37:11.786Z,14.73
2024-02-05T10:39:39.854Z,13.17
2024-02-05T10:42:07.868Z,14.93
2024-02-05T10:44:41.508Z,12.43
2024-02-05T10:47:11.029Z,13.47
2024-02-05T10:49:39.928Z,15.00
2024-02-05T10:52:11.181Z,14.40
2024-02-05T10:54:42.872Z,15.40
2024-02-05T10:57:11.348Z,13.63
2024-02-05T10:59:40.708Z,12.70
2024-02-05T11:02:15.719Z,13.23
2024-02-05T11:04:44.333Z,13.30
2024-02-05T11:07:18.381Z,13.60
2024-02-05T11:09:50.850Z,15.87
2024-02-05T11:12:23.757Z,14.13
2024-02-05T11:14:58.337Z,14.53
2024-02-05T11:17:27.288Z,16.07
2024-02-05T11:19:57.552Z,14.77
2024-02-05T11:22:26.786Z,15.07
2024-02-05T11:24:54.839Z,13.50
2024-02-05T11:27:22.907Z,13.97
2024-02-05T11:29:53.456Z,13.47
2024-02-05T11:32:31.481Z,14.97
2024-02-05T11:34:59.639Z,14.87
2024-02-05T11:37:28.964Z,15.33
2024-02-05T11:40:00.321Z,15.67
2024-02-05T11:42:29.873Z,16.57
2024-02-05T11:45:00.902Z,17.53
2024-02-05T11:47:29.485Z,19.37
2024-02-05T11:49:59.322Z,19.40
2024-02-05T11:52:27.598Z,16.40
2024-02-05T11:54:57.417Z,16.87
2024-02-05T11:57:26.467Z,18.80
2024-02-05T11:59:54.433Z,17.07
2024-02-05T12:02:24.707Z,16.70
2024-02-05T12:04:53.278Z,17.50
2024-02-05T12:07:24.130Z,14.47
2024-02-05T12:09:52.567Z,15.83
2024-02-05T12:12:21.175Z,15.70
2024-02-05T12:14:49.124Z,16.17
2024-02-05T12:17:17.319Z,16.37
2024-02-05T12:19:46.961Z,16.00
2024-02-05T12:22:16.034Z,14.10
2024-02-05T12:24:44.175Z,15.63
2024-02-05T12:27:12.158Z,14.50
2024-02-05T12:29:40.125Z,14.50
2024-02-05T12:32:08.969Z,13.50
2024-02-05T12:34:37.713Z,14.93
2024-02-05T12:37:08.441Z,15.40
2024-02-05T12:39:37.806Z,14.90
2024-02-05T12:42:06.415Z,15.97
2024-02-05T12:44:40.517Z,14.57
2024-02-05T12:47:12.670Z,14.60
2024-02-05T12:49:41.791Z,12.43
2024-02-05T12:52:11.638Z,13.40
2024-02-05T12:54:40.605Z,12.57
2024-02-05T12:57:09.559Z,11.23
2024-02-05T12:59:37.670Z,12.30
2024-02-05T13:02:07.325Z,11.00
2024-02-05T13:04:37.332Z,12.47
2024-02-05T13:07:09.689Z,11.60
2024-02-05T13:09:43.254Z,12.27
2024-02-05T13:12:13.565Z,11.40
2024-02-05T13:14:41.699Z,11.13
2024-02-05T13:17:09.722Z,12.13
2024-02-05T13:19:38.607Z,11.73
2024-02-05T13:22:07.803Z,12.43
2024-02-05T13:24:37.599Z,12.13
2024-02-05T13:27:07.305Z,11.80
2024-02-05T13:29:35.300Z,11.03
2024-02-05T13:32:03.404Z,11.70
2024-02-05T13:34:33.314Z,10.57
2024-02-05T13:37:01.768Z,11.40
2024-02-05T13:39:29.839Z,11.23
2024-02-05T13:41:58.144Z,12.30
2024-02-05T13:44:28.028Z,12.10
2024-02-05T13:46:56.028Z,11.47
2024-02-05T13:49:24.113Z,10.60
2024-02-05T13:51:52.351Z,10.27
2024-02-05T13:54:20.444Z,10.98
2024-02-05T13:56:50.412Z,11.30
2024-02-05T13:59:18.845Z,10.43
2024-02-05T14:01:52.982Z,10.43
2024-02-05T14:04:21.462Z,11.00
2024-02-05T14:06:49.662Z,11.93
2024-02-05T14:09:17.793Z,10.97
2024-02-05T14:11:45.773Z,10.45
2024-02-05T14:14:13.728Z,10.73
2024-02-05T14:16:41.821Z,10.88
2024-02-05T14:19:11.238Z,11.07
2024-02-05T14:21:41.534Z,10.38
2024-02-05T14:24:10.339Z,11.50
2024-02-05T14:26:39.072Z,10.25
2024-02-05T14:29:07.038Z,10.32
2024-02-05T14:31:35.097Z,10.10
2024-02-05T14:34:03.936Z,11.13
2024-02-05T14:36:33.511Z,10.15
2024-02-05T14:39:01.509Z,10.25
2024-02-05T14:41:29.515Z,10.98
2024-02-05T14:43:57.458Z,9.73
2024-02-05T14:46:25.516Z,9.73
2024-02-05T14:48:53.666Z,9.95
2024-02-05T14:51:21.786Z,10.45
2024-02-05T14:53:51.241Z,10.68
2024-02-05T14:56:19.219Z,10.63
2024-02-05T14:58:47.177Z,10.32
2024-02-05T15:01:15.251Z,9.85
2024-02-05T15:03:46.145Z,10.43
2024-02-05T15:06:14.404Z,10.63
2024-02-05T15:08:42.660Z,10.25
2024-02-05T15:11:12.603Z,9.00
2024-02-05T15:13:40.722Z,9.90
2024-02-05T15:16:09.909Z,9.43
2024-02-05T15:18:37.948Z,9.55
2024-02-05T15:21:06.099Z,9.88
2024-02-05T15:23:37.330Z,9.85
2024-02-05T15:26:05.589Z,10.13
2024-02-05T15:28:34.950Z,10.95
2024-02-05T15:31:03.129Z,9.93
2024-02-05T15:33:31.145Z,10.50
2024-02-05T15:35:59.245Z,10.63
2024-02-05T15:38:27.236Z,11.18
2024-02-05T15:40:55.207Z,9.93
2024-02-05T15:43:23.677Z,9.52
2024-02-05T15:45:53.164Z,10.73
2024-02-05T15:48:21.699Z,11.18
2024-02-05T15:50:49.849Z,11.30
2024-02-05T15:53:19.021Z,11.05
2024-02-05T15:55:48.177Z,10.02
2024-02-05T15:58:16.716Z,10.05
2024-02-05T16:00:45.454Z,9.45
2024-02-05T16:03:14.897Z,10.63
2024-02-05T16:05:42.970Z,10.63
2024-02-05T16:08:11.081Z,9.27
2024-02-05T16:10:39.331Z,9.52
2024-02-05T16:13:07.820Z,10.77
2024-02-05T16:15:35.872Z,10.65
2024-02-05T16:18:04.742Z,10.68
2024-02-05T16:20:35.717Z,10.77
2024-02-05T16:23:04.570Z,10.18
2024-02-05T16:25:35.567Z,10.63
2024-02-05T16:28:03.870Z,10.70
2024-02-05T16:30:34.049Z,10.15
2024-02-05T16:33:02.679Z,10.48
2024-02-05T16:35:30.784Z,10.63
2024-02-05T16:38:00.209Z,10.82
2024-02-05T16:40:28.358Z,11.50
2024-02-05T16:42:56.387Z,12.30
2024-02-05T16:45:24.396Z,11.37
2024-02-05T16:47:52.408Z,11.50
2024-02-05T16:50:20.654Z,11.63
2024-02-05T16:52:49.486Z,11.50
2024-02-05T16:55:19.005Z,11.20
2024-02-05T16:57:47.101Z,11.40
2024-02-05T17:00:15.684Z,9.90
2024-02-05T17:02:43.613Z,10.83
2024-02-05T17:05:11.938Z,10.90
2024-02-05T17:07:45.289Z,10.70
2024-02-05T17:10:13.735Z,10.80
2024-02-05T17:12:43.107Z,14.03
2024-02-05T17:15:11.151Z,12.50
2024-02-05T17:17:39.185Z,11.87
2024-02-05T17:20:08.534Z,12.10
2024-02-05T17:22:36.959Z,15.67
2024-02-05T17:25:05.441Z,12.17
2024-02-05T17:27:33.906Z,11.33
2024-02-05T17:30:03.320Z,12.93
2024-02-05T17:32:31.579Z,14.03
2024-02-05T17:35:01.204Z,14.47
2024-02-05T17:37:29.402Z,14.33
2024-02-05T17:39:57.556Z,14.10
2024-02-05T17:42:25.768Z,13.83
2024-02-05T17:44:53.700Z,13.10
2024-02-05T17:47:23.054Z,14.87
2024-02-05T17:49:51.112Z,12.80
2024-02-05T17:52:19.224Z,12.37
2024-02-05T17:54:47.262Z,13.80
2024-02-05T17:57:15.258Z,13.30
2024-02-05T17:59:43.397Z,14.00
2024-02-05T18:02:11.849Z,13.53
2024-02-05T18:04:41.415Z,13.17
2024-02-05T18:07:09.549Z,13.33
2024-02-05T18:09:37.570Z,12.43
2024-02-05T18:12:08.358Z,12.83
2024-02-05T18:14:37.181Z,14.00
2024-02-05T18:17:05.675Z,13.43
2024-02-05T18:19:33.946Z,14.10
2024-02-05T18:22:03.369Z,13.30
2024-02-05T18:24:37.965Z,12.93
2024-02-05T18:27:13.653Z,14.60
2024-02-05T18:29:41.604Z,14.47
2024-02-05T18:32:09.558Z,14.97
2024-02-05T18:34:42.396Z,16.77
2024-02-05T18:37:14.453Z,19.63
2024-02-05T18:39:42.706Z,16.23
2024-02-05T18:42:10.724Z,17.20
2024-02-05T18:44:38.698Z,16.17
2024-02-05T18:47:07.578Z,15.33
2024-02-05T18:49:35.622Z,16.27
2024-02-05T18:52:07.835Z,16.33
2024-02-05T18:54:39.189Z,16.07
2024-02-05T18:57:09.902Z,15.07
2024-02-05T18:59:37.937Z,16.10
2024-02-05T19:02:06.083Z,17.87
2024-02-05T19:04:34.128Z,19.10
2024-02-05T19:07:02.109Z,19.50
2024-02-05T19:09:30.164Z,20.57
2024-02-05T19:11:59.686Z,17.70
2024-02-05T19:14:27.666Z,14.77
2024-02-05T19:16:55.714Z,16.50
2024-02-05T19:19:23.849Z,13.27
2024-02-05T19:21:52.107Z,13.27
2024-02-05T19:24:20.504Z,15.60
2024-02-05T19:26:50.021Z,17.57
2024-02-05T19:29:21.300Z,17.30
2024-02-05T19:31:49.574Z,15.20
2024-02-05T19:34:20.238Z,14.73
2024-02-05T19:36:48.273Z,13.77
2024-02-05T19:39:16.360Z,15.23
2024-02-05T19:41:44.518Z,15.87
2024-02-05T19:44:12.601Z,16.80
2024-02-05T19:46:42.108Z,15.40
2024-02-05T19:49:10.269Z,14.70
2024-02-05T19:51:38.238Z,18.30
2024-02-05T19:54:06.766Z,14.83
2024-02-05T19:56:34.703Z,16.13
2024-02-05T19:59:02.791Z,16.90
2024-02-05T20:01:31.044Z,19.07
2024-02-05T20:04:00.626Z,13.27
2024-02-05T20:06:28.730Z,12.40
2024-02-05T20:08:56.730Z,13.90
2024-02-05T20:11:24.724Z,14.33
2024-02-05T20:13:52.681Z,13.80
2024-02-05T20:16:27.499Z,13.30
2024-02-05T20:18:56.288Z,14.13
2024-02-05T20:21:26.232Z,16.07
2024-02-05T20:23:55.828Z,15.33
2024-02-05T20:26:24.215Z,17.17
2024-02-05T20:28:52.199Z,15.57
2024-02-05T20:31:20.231Z,13.93
2024-02-05T20:33:48.266Z,15.23
2024-02-05T20:36:16.226Z,15.40
2024-02-05T20:38:45.993Z,15.73
2024-02-05T20:41:14.234Z,18.70
2024-02-05T20:43:46.542Z,20.43
2024-02-05T20:46:15.230Z,22.00
2024-02-05T20:48:43.204Z,21.80
2024-02-05T20:51:11.236Z,22.07
2024-02-05T20:53:39.387Z,16.10
2024-02-05T20:56:09.091Z,22.20
2024-02-05T20:58:37.181Z,18.83
2024-02-05T21:01:05.587Z,17.90
2024-02-05T21:03:36.739Z,14.10
2024-02-05T21:06:05.655Z,15.10
2024-02-05T21:08:34.328Z,14.20
2024-02-05T21:11:04.450Z,13.97
2024-02-05T21:13:34.675Z,14.60
2024-02-05T21:16:02.990Z,14.63
2024-02-05T21:18:31.211Z,13.97
2024-02-05T21:20:59.522Z,14.73
2024-02-05T21:23:27.524Z,17.20
2024-02-05T21:25:55.451Z,18.23
2024-02-05T21:28:23.481Z,26.27
2024-02-05T21:30:52.892Z,25.77
2024-02-05T21:33:20.921Z,21.00
2024-02-05T21:35:49.006Z,17.63
2024-02-05T21:38:17.028Z,17.37
2024-02-05T21:40:45.404Z,20.73
2024-02-05T21:43:13.532Z,21.93
2024-02-05T21:45:41.620Z,19.10
2024-02-05T21:48:11.722Z,14.63
2024-02-05T21:50:40.627Z,13.90
2024-02-05T21:53:08.718Z,11.57
2024-02-05T21:55:36.847Z,13.70
2024-02-05T21:58:05.113Z,14.20
2024-02-05T22:00:33.160Z,19.10
2024-02-05T22:03:01.169Z,18.90
2024-02-05T22:05:30.652Z,20.53
2024-02-05T22:07:58.806Z,18.83
2024-02-05T22:10:26.738Z,16.13
2024-02-05T22:12:54.819Z,16.77
2024-02-05T22:15:22.842Z,14.77
2024-02-05T22:17:51.916Z,14.93
2024-02-05T22:20:20.206Z,12.77
2024-02-05T22:22:49.578Z,11.20
2024-02-05T22:25:18.564Z,11.57
2024-02-05T22:27:46.727Z,12.87
2024-02-05T22:30:15.410Z,14.63
2024-02-05T22:32:43.395Z,14.37
2024-02-05T22:35:11.734Z,15.43
2024-02-05T22:37:39.851Z,13.53
2024-02-05T22:40:10.841Z,14.83
2024-02-05T22:42:39.164Z,15.67
2024-02-05T22:45:08.660Z,15.30
2024-02-05T22:47:36.906Z,16.60
2024-02-05T22:50:05.920Z,21.27
2024-02-05T22:52:35.577Z,18.80
2024-02-05T22:55:04.685Z,19.03
2024-02-05T22:57:34.547Z,18.13
2024-02-05T23:00:03.050Z,19.90
2024-02-05T23:02:31.899Z,21.33
2024-02-05T23:05:00.037Z,20.53
2024-02-05T23:07:28.090Z,17.33
2024-02-05T23:09:56.037Z,15.27
2024-02-05T23:12:24.223Z,16.87
2024-02-05T23:14:53.577Z,18.07
2024-02-05T23:17:21.530Z,16.00
2024-02-05T23:19:49.578Z,16.10
2024-02-05T23:22:17.909Z,16.23
2024-02-05T23:24:46.174Z,15.33
2024-02-05T23:27:14.088Z,15.03
2024-02-05T23:29:42.236Z,12.73
2024-02-05T23:32:11.599Z,12.70
2024-02-05T23:34:39.851Z,13.60
2024-02-05T23:37:08.398Z,12.30
2024-02-05T23:39:37.455Z,11.83
2024-02-05T23:42:05.996Z,13.77
2024-02-05T23:44:33.925Z,12.27
2024-02-05T23:47:01.909Z,11.13
2024-02-05T23:49:31.389Z,13.80
2024-02-05T23:51:59.427Z,11.90
2024-02-05T23:54:27.399Z,11.70
2024-02-05T23:56:55.735Z,11.90
2024-02-05T23:59:23.791Z,10.83
